sensor_id;sensor_type;location;lat;lon;timestamp;pressure;altitude;pressure_sealevel;temperature;humidity
21904;BME280;11116;51.554;7.812;2022-09-13T00:02:14;100125.66;;;18.63;74.70
21904;BME280;11116;51.554;7.812;2022-09-13T00:04:43;100114.28;;;18.60;74.69
21904;BME280;11116;51.554;7.812;2022-09-13T00:07:09;100105.16;;;18.48;75.21
21904;BME280;11116;51.554;7.812;2022-09-13T00:09:36;100114.22;;;18.75;73.86
21904;BME280;11116;51.554;7.812;2022-09-13T00:12:04;100126.09;;;18.66;74.82
21904;BME280;11116;51.554;7.812;2022-09-13T00:14:31;100121.75;;;18.65;74.85
21904;BME280;11116;51.554;7.812;2022-09-13T00:16:58;100118.31;;;18.71;74.03
21904;BME280;11116;51.554;7.812;2022-09-13T00:19:24;100112.31;;;18.69;74.33
21904;BME280;11116;51.554;7.812;2022-09-13T00:21:53;100107.16;;;18.68;74.73
21904;BME280;11116;51.554;7.812;2022-09-13T00:24:20;100108.06;;;19.02;73.21
21904;BME280;11116;51.554;7.812;2022-09-13T00:26:47;100104.31;;;18.97;73.03
21904;BME280;11116;51.554;7.812;2022-09-13T00:29:14;100102.63;;;18.89;73.41
21904;BME280;11116;51.554;7.812;2022-09-13T00:31:41;100097.78;;;18.78;73.99
21904;BME280;11116;51.554;7.812;2022-09-13T00:34:08;100098.03;;;18.83;73.52
21904;BME280;11116;51.554;7.812;2022-09-13T00:36:34;100082.22;;;18.88;73.49
21904;BME280;11116;51.554;7.812;2022-09-13T00:39:03;100073.59;;;19.27;72.57
21904;BME280;11116;51.554;7.812;2022-09-13T00:41:30;100070.38;;;19.04;73.11
21904;BME280;11116;51.554;7.812;2022-09-13T00:43:58;100078.16;;;18.99;73.26
21904;BME280;11116;51.554;7.812;2022-09-13T00:46:31;100081.22;;;18.96;73.30
21904;BME280;11116;51.554;7.812;2022-09-13T00:49:03;100075.25;;;18.94;73.06
21904;BME280;11116;51.554;7.812;2022-09-13T00:51:35;100079.31;;;18.90;74.27
21904;BME280;11116;51.554;7.812;2022-09-13T00:54:03;100071.91;;;18.85;73.56
21904;BME280;11116;51.554;7.812;2022-09-13T00:56:32;100061.91;;;19.00;73.34
21904;BME280;11116;51.554;7.812;2022-09-13T00:59:04;100064.44;;;18.81;74.24
21904;BME280;11116;51.554;7.812;2022-09-13T01:01:37;100063.16;;;18.98;73.95
21904;BME280;11116;51.554;7.812;2022-09-13T01:04:07;100049.50;;;18.93;73.42
21904;BME280;11116;51.554;7.812;2022-09-13T01:06:35;100050.13;;;19.29;72.29
21904;BME280;11116;51.554;7.812;2022-09-13T01:09:05;100052.72;;;19.09;72.78
21904;BME280;11116;51.554;7.812;2022-09-13T01:11:39;100045.31;;;19.11;72.46
21904;BME280;11116;51.554;7.812;2022-09-13T01:14:08;100038.09;;;19.12;72.15
21904;BME280;11116;51.554;7.812;2022-09-13T01:16:35;100049.69;;;19.26;71.78
21904;BME280;11116;51.554;7.812;2022-09-13T01:19:03;100039.25;;;19.37;71.15
21904;BME280;11116;51.554;7.812;2022-09-13T01:22:13;100036.34;;;19.32;70.90
21904;BME280;11116;51.554;7.812;2022-09-13T01:25:19;100030.59;;;19.35;71.06
21904;BME280;11116;51.554;7.812;2022-09-13T01:28:11;100031.06;;;19.45;70.95
21904;BME280;11116;51.554;7.812;2022-09-13T01:30:48;100030.38;;;19.37;71.25
21904;BME280;11116;51.554;7.812;2022-09-13T01:33:33;100032.13;;;19.44;71.11
21904;BME280;11116;51.554;7.812;2022-09-13T01:36:23;100025.97;;;19.57;70.51
21904;BME280;11116;51.554;7.812;2022-09-13T01:39:02;100024.09;;;19.51;70.63
21904;BME280;11116;51.554;7.812;2022-09-13T01:41:45;100031.06;;;19.45;70.83
21904;BME280;11116;51.554;7.812;2022-09-13T01:44:26;100038.50;;;19.43;71.02
21904;BME280;11116;51.554;7.812;2022-09-13T01:47:02;100027.78;;;19.43;70.86
21904;BME280;11116;51.554;7.812;2022-09-13T01:49:39;100027.00;;;19.56;70.69
21904;BME280;11116;51.554;7.812;2022-09-13T01:52:17;100023.81;;;19.39;70.78
21904;BME280;11116;51.554;7.812;2022-09-13T01:54:52;100034.38;;;19.41;70.81
21904;BME280;11116;51.554;7.812;2022-09-13T01:57:26;100038.59;;;19.29;71.29
21904;BME280;11116;51.554;7.812;2022-09-13T01:59:59;100038.06;;;19.40;70.82
21904;BME280;11116;51.554;7.812;2022-09-13T02:02:30;100036.66;;;19.50;70.44
21904;BME280;11116;51.554;7.812;2022-09-13T02:05:04;100042.75;;;19.38;70.70
21904;BME280;11116;51.554;7.812;2022-09-13T02:07:35;100034.59;;;19.46;70.81
21904;BME280;11116;51.554;7.812;2022-09-13T02:10:07;100037.97;;;19.27;71.45
21904;BME280;11116;51.554;7.812;2022-09-13T02:12:37;100033.31;;;19.07;72.42
21904;BME280;11116;51.554;7.812;2022-09-13T02:15:09;100024.06;;;19.03;72.43
21904;BME280;11116;51.554;7.812;2022-09-13T02:17:43;100031.47;;;19.08;72.01
21904;BME280;11116;51.554;7.812;2022-09-13T02:20:15;100019.06;;;19.35;71.83
21904;BME280;11116;51.554;7.812;2022-09-13T02:22:48;100025.88;;;19.37;71.31
21904;BME280;11116;51.554;7.812;2022-09-13T02:25:19;100025.44;;;19.34;71.25
21904;BME280;11116;51.554;7.812;2022-09-13T02:27:51;100026.38;;;19.47;70.52
21904;BME280;11116;51.554;7.812;2022-09-13T02:30:24;100034.91;;;19.36;70.82
21904;BME280;11116;51.554;7.812;2022-09-13T02:32:55;100045.56;;;19.23;71.41
21904;BME280;11116;51.554;7.812;2022-09-13T02:35:27;100042.84;;;19.44;71.31
21904;BME280;11116;51.554;7.812;2022-09-13T02:37:59;100039.03;;;19.32;71.15
21904;BME280;11116;51.554;7.812;2022-09-13T02:40:32;100038.09;;;19.46;70.78
21904;BME280;11116;51.554;7.812;2022-09-13T02:43:05;100039.88;;;19.33;70.91
21904;BME280;11116;51.554;7.812;2022-09-13T02:45:40;100037.16;;;19.26;71.58
21904;BME280;11116;51.554;7.812;2022-09-13T02:48:19;100028.41;;;19.11;72.19
21904;BME280;11116;51.554;7.812;2022-09-13T02:50:56;100022.81;;;19.40;71.17
21904;BME280;11116;51.554;7.812;2022-09-13T02:53:28;100032.53;;;19.48;71.06
21904;BME280;11116;51.554;7.812;2022-09-13T02:56:07;100032.72;;;19.46;70.93
21904;BME280;11116;51.554;7.812;2022-09-13T02:58:41;100024.78;;;19.25;71.64
21904;BME280;11116;51.554;7.812;2022-09-13T03:01:10;100025.09;;;19.43;70.66
21904;BME280;11116;51.554;7.812;2022-09-13T03:03:39;100016.44;;;19.41;70.67
21904;BME280;11116;51.554;7.812;2022-09-13T03:06:06;100025.13;;;19.50;71.04
21904;BME280;11116;51.554;7.812;2022-09-13T03:08:33;100022.19;;;19.45;70.50
21904;BME280;11116;51.554;7.812;2022-09-13T03:11:10;100015.53;;;19.34;71.03
21904;BME280;11116;51.554;7.812;2022-09-13T03:14:15;100016.56;;;19.27;71.34
21904;BME280;11116;51.554;7.812;2022-09-13T03:16:59;100025.28;;;19.42;71.36
21904;BME280;11116;51.554;7.812;2022-09-13T03:19:39;100016.91;;;19.58;70.19
21904;BME280;11116;51.554;7.812;2022-09-13T03:25:07;100017.13;;;19.22;72.13
21904;BME280;11116;51.554;7.812;2022-09-13T03:27:43;100026.00;;;19.23;72.28
21904;BME280;11116;51.554;7.812;2022-09-13T03:30:13;100019.63;;;19.30;72.04
21904;BME280;11116;51.554;7.812;2022-09-13T03:32:49;100024.72;;;19.18;71.88
21904;BME280;11116;51.554;7.812;2022-09-13T03:35:24;100032.63;;;19.27;72.02
21904;BME280;11116;51.554;7.812;2022-09-13T03:37:56;100032.88;;;19.04;73.31
21904;BME280;11116;51.554;7.812;2022-09-13T03:40:33;100035.56;;;19.04;73.77
21904;BME280;11116;51.554;7.812;2022-09-13T03:43:05;100036.09;;;19.21;73.71
21904;BME280;11116;51.554;7.812;2022-09-13T03:45:39;100037.81;;;19.00;74.14
21904;BME280;11116;51.554;7.812;2022-09-13T03:48:09;100050.94;;;18.95;75.44
21904;BME280;11116;51.554;7.812;2022-09-13T03:50:40;100059.22;;;18.66;77.84
21904;BME280;11116;51.554;7.812;2022-09-13T03:53:10;100056.03;;;18.56;79.00
21904;BME280;11116;51.554;7.812;2022-09-13T03:55:39;100056.84;;;18.56;79.77
21904;BME280;11116;51.554;7.812;2022-09-13T03:58:10;100052.84;;;18.25;80.89
21904;BME280;11116;51.554;7.812;2022-09-13T04:00:37;100051.88;;;18.32;80.99
21904;BME280;11116;51.554;7.812;2022-09-13T04:03:06;100049.13;;;18.47;79.74
21904;BME280;11116;51.554;7.812;2022-09-13T04:05:33;100055.25;;;18.41;79.28
21904;BME280;11116;51.554;7.812;2022-09-13T04:08:02;100050.16;;;18.25;80.99
21904;BME280;11116;51.554;7.812;2022-09-13T04:10:30;100043.16;;;18.24;81.01
21904;BME280;11116;51.554;7.812;2022-09-13T04:12:57;100041.69;;;18.21;80.64
21904;BME280;11116;51.554;7.812;2022-09-13T04:15:25;100037.81;;;18.24;80.31
21904;BME280;11116;51.554;7.812;2022-09-13T04:17:52;100033.09;;;18.26;80.34
21904;BME280;11116;51.554;7.812;2022-09-13T04:20:19;100031.56;;;18.38;80.39
21904;BME280;11116;51.554;7.812;2022-09-13T04:22:50;100028.00;;;18.31;80.11
21904;BME280;11116;51.554;7.812;2022-09-13T04:25:19;100025.44;;;18.44;79.00
21904;BME280;11116;51.554;7.812;2022-09-13T04:27:46;100022.31;;;18.40;79.58
21904;BME280;11116;51.554;7.812;2022-09-13T04:30:14;100023.09;;;18.55;79.11
21904;BME280;11116;51.554;7.812;2022-09-13T04:32:42;100018.63;;;18.41;79.20
21904;BME280;11116;51.554;7.812;2022-09-13T04:35:10;100016.41;;;18.66;78.24
21904;BME280;11116;51.554;7.812;2022-09-13T04:37:37;100024.69;;;18.50;78.41
21904;BME280;11116;51.554;7.812;2022-09-13T04:40:05;100023.69;;;18.51;78.67
21904;BME280;11116;51.554;7.812;2022-09-13T04:42:34;100016.56;;;18.37;79.19
21904;BME280;11116;51.554;7.812;2022-09-13T04:45:00;100025.00;;;18.61;78.29
21904;BME280;11116;51.554;7.812;2022-09-13T04:47:27;100033.22;;;18.39;78.73
21904;BME280;11116;51.554;7.812;2022-09-13T04:49:55;100025.25;;;18.45;78.87
21904;BME280;11116;51.554;7.812;2022-09-13T04:52:22;100027.44;;;18.56;78.87
21904;BME280;11116;51.554;7.812;2022-09-13T04:54:50;100039.41;;;18.18;81.00
21904;BME280;11116;51.554;7.812;2022-09-13T04:57:16;100047.88;;;18.00;82.87
21904;BME280;11116;51.554;7.812;2022-09-13T04:59:45;100045.69;;;17.89;83.58
21904;BME280;11116;51.554;7.812;2022-09-13T05:02:12;100051.16;;;17.81;85.32
21904;BME280;11116;51.554;7.812;2022-09-13T05:04:39;100049.88;;;17.77;85.68
21904;BME280;11116;51.554;7.812;2022-09-13T05:07:06;100034.59;;;17.71;86.12
21904;BME280;11116;51.554;7.812;2022-09-13T05:09:33;100037.09;;;17.73;86.26
21904;BME280;11116;51.554;7.812;2022-09-13T05:12:00;100033.50;;;18.01;83.68
21904;BME280;11116;51.554;7.812;2022-09-13T05:14:27;100035.88;;;17.96;83.39
21904;BME280;11116;51.554;7.812;2022-09-13T05:16:55;100038.56;;;17.96;83.32
21904;BME280;11116;51.554;7.812;2022-09-13T05:19:22;100032.28;;;18.04;82.89
21904;BME280;11116;51.554;7.812;2022-09-13T05:21:50;100022.91;;;18.15;82.31
21904;BME280;11116;51.554;7.812;2022-09-13T05:24:16;100023.09;;;18.34;81.65
21904;BME280;11116;51.554;7.812;2022-09-13T05:26:43;100013.72;;;18.45;80.45
21904;BME280;11116;51.554;7.812;2022-09-13T05:29:10;100025.06;;;18.26;81.66
21904;BME280;11116;51.554;7.812;2022-09-13T05:31:38;100031.53;;;18.31;81.05
21904;BME280;11116;51.554;7.812;2022-09-13T05:34:09;100027.88;;;18.39;81.01
21904;BME280;11116;51.554;7.812;2022-09-13T05:36:36;100025.00;;;18.40;81.23
21904;BME280;11116;51.554;7.812;2022-09-13T05:39:04;100026.41;;;18.36;81.08
21904;BME280;11116;51.554;7.812;2022-09-13T05:41:31;100023.59;;;18.44;80.75
21904;BME280;11116;51.554;7.812;2022-09-13T05:43:58;100025.13;;;18.32;81.67
21904;BME280;11116;51.554;7.812;2022-09-13T05:46:25;100030.66;;;18.52;80.66
21904;BME280;11116;51.554;7.812;2022-09-13T05:48:52;100032.53;;;18.51;80.74
21904;BME280;11116;51.554;7.812;2022-09-13T05:51:21;100034.88;;;18.61;80.95
21904;BME280;11116;51.554;7.812;2022-09-13T05:53:49;100032.56;;;18.58;80.63
21904;BME280;11116;51.554;7.812;2022-09-13T05:56:18;100030.56;;;18.60;80.55
21904;BME280;11116;51.554;7.812;2022-09-13T05:58:46;100037.94;;;18.37;81.44
21904;BME280;11116;51.554;7.812;2022-09-13T06:01:15;100034.88;;;18.61;80.85
21904;BME280;11116;51.554;7.812;2022-09-13T06:03:46;100040.88;;;18.63;79.97
21904;BME280;11116;51.554;7.812;2022-09-13T06:06:12;100039.88;;;18.71;79.90
21904;BME280;11116;51.554;7.812;2022-09-13T06:08:41;100044.84;;;18.74;80.49
21904;BME280;11116;51.554;7.812;2022-09-13T06:11:09;100054.56;;;18.53;81.23
21904;BME280;11116;51.554;7.812;2022-09-13T06:13:37;100052.47;;;18.49;81.94
21904;BME280;11116;51.554;7.812;2022-09-13T06:16:06;100048.50;;;18.45;81.86
21904;BME280;11116;51.554;7.812;2022-09-13T06:18:34;100047.47;;;18.46;82.97
21904;BME280;11116;51.554;7.812;2022-09-13T06:21:03;100045.81;;;18.45;82.12
21904;BME280;11116;51.554;7.812;2022-09-13T06:23:30;100042.59;;;18.49;82.04
21904;BME280;11116;51.554;7.812;2022-09-13T06:26:03;100048.25;;;18.61;81.44
21904;BME280;11116;51.554;7.812;2022-09-13T06:28:30;100042.22;;;18.52;81.73
21904;BME280;11116;51.554;7.812;2022-09-13T06:31:02;100046.66;;;18.45;82.41
21904;BME280;11116;51.554;7.812;2022-09-13T06:33:30;100047.94;;;18.49;82.14
21904;BME280;11116;51.554;7.812;2022-09-13T06:36:02;100039.44;;;18.46;82.14
21904;BME280;11116;51.554;7.812;2022-09-13T06:38:30;100051.91;;;18.53;82.17
21904;BME280;11116;51.554;7.812;2022-09-13T06:41:03;100051.31;;;18.58;82.19
21904;BME280;11116;51.554;7.812;2022-09-13T06:43:30;100068.63;;;18.41;83.32
21904;BME280;11116;51.554;7.812;2022-09-13T06:45:59;100062.78;;;18.31;84.78
21904;BME280;11116;51.554;7.812;2022-09-13T06:48:26;100062.13;;;18.29;84.48
21904;BME280;11116;51.554;7.812;2022-09-13T06:50:57;100062.78;;;18.31;85.01
21904;BME280;11116;51.554;7.812;2022-09-13T06:53:24;100060.59;;;18.41;84.25
21904;BME280;11116;51.554;7.812;2022-09-13T06:55:59;100056.47;;;18.59;82.81
21904;BME280;11116;51.554;7.812;2022-09-13T06:58:29;100063.84;;;18.57;83.09
21904;BME280;11116;51.554;7.812;2022-09-13T07:01:15;100062.00;;;18.58;83.85
21904;BME280;11116;51.554;7.812;2022-09-13T07:03:44;100067.34;;;18.58;84.51
21904;BME280;11116;51.554;7.812;2022-09-13T07:06:13;100067.41;;;18.65;83.27
21904;BME280;11116;51.554;7.812;2022-09-13T07:08:41;100071.41;;;18.75;83.68
21904;BME280;11116;51.554;7.812;2022-09-13T07:11:08;100082.09;;;18.75;84.87
21904;BME280;11116;51.554;7.812;2022-09-13T07:13:37;100091.16;;;18.74;87.18
21904;BME280;11116;51.554;7.812;2022-09-13T07:16:06;100087.06;;;18.78;86.99
21904;BME280;11116;51.554;7.812;2022-09-13T07:18:34;100080.50;;;18.81;88.09
21904;BME280;11116;51.554;7.812;2022-09-13T07:21:02;100079.09;;;18.85;88.27
21904;BME280;11116;51.554;7.812;2022-09-13T07:23:30;100087.19;;;18.91;87.61
21904;BME280;11116;51.554;7.812;2022-09-13T07:25:58;100086.63;;;19.02;86.53
21904;BME280;11116;51.554;7.812;2022-09-13T07:28:30;100092.31;;;19.21;86.35
21904;BME280;11116;51.554;7.812;2022-09-13T07:31:05;100083.78;;;19.38;85.87
21904;BME280;11116;51.554;7.812;2022-09-13T07:33:33;100087.31;;;19.45;85.49
21904;BME280;11116;51.554;7.812;2022-09-13T07:36:00;100090.16;;;19.37;84.62
21904;BME280;11116;51.554;7.812;2022-09-13T07:38:32;100081.88;;;19.66;83.44
21904;BME280;11116;51.554;7.812;2022-09-13T07:40:59;100080.81;;;19.61;82.96
21904;BME280;11116;51.554;7.812;2022-09-13T07:43:26;100076.56;;;19.86;82.49
21904;BME280;11116;51.554;7.812;2022-09-13T07:45:57;100080.09;;;19.87;82.65
21904;BME280;11116;51.554;7.812;2022-09-13T07:48:27;100076.34;;;19.81;81.47
21904;BME280;11116;51.554;7.812;2022-09-13T07:50:59;100082.00;;;20.12;81.33
21904;BME280;11116;51.554;7.812;2022-09-13T07:53:27;100084.91;;;20.17;80.84
21904;BME280;11116;51.554;7.812;2022-09-13T07:55:59;100089.09;;;20.33;80.49
21904;BME280;11116;51.554;7.812;2022-09-13T07:58:26;100086.16;;;20.21;78.68
21904;BME280;11116;51.554;7.812;2022-09-13T08:00:53;100086.84;;;20.37;78.86
21904;BME280;11116;51.554;7.812;2022-09-13T08:03:21;100085.56;;;20.26;78.83
21904;BME280;11116;51.554;7.812;2022-09-13T08:05:49;100080.84;;;20.48;77.31
21904;BME280;11116;51.554;7.812;2022-09-13T08:08:16;100081.88;;;20.47;77.38
21904;BME280;11116;51.554;7.812;2022-09-13T08:10:44;100081.25;;;20.58;76.99
21904;BME280;11116;51.554;7.812;2022-09-13T08:13:11;100082.94;;;20.92;77.06
21904;BME280;11116;51.554;7.812;2022-09-13T08:15:38;100082.28;;;21.22;76.75
21904;BME280;11116;51.554;7.812;2022-09-13T08:18:05;100091.16;;;20.97;75.22
21904;BME280;11116;51.554;7.812;2022-09-13T08:20:34;100091.81;;;20.92;74.70
21904;BME280;11116;51.554;7.812;2022-09-13T08:23:03;100088.94;;;20.80;75.83
21904;BME280;11116;51.554;7.812;2022-09-13T08:25:31;100098.81;;;20.93;75.21
21904;BME280;11116;51.554;7.812;2022-09-13T08:27:59;100092.00;;;20.64;75.63
21904;BME280;11116;51.554;7.812;2022-09-13T08:30:26;100094.69;;;20.58;75.97
21904;BME280;11116;51.554;7.812;2022-09-13T08:32:58;100096.13;;;20.47;76.66
21904;BME280;11116;51.554;7.812;2022-09-13T08:35:25;100101.31;;;20.62;76.78
21904;BME280;11116;51.554;7.812;2022-09-13T08:37:52;100102.34;;;20.80;76.49
21904;BME280;11116;51.554;7.812;2022-09-13T08:40:21;100105.03;;;20.67;75.97
21904;BME280;11116;51.554;7.812;2022-09-13T08:42:53;100102.13;;;20.89;75.65
21904;BME280;11116;51.554;7.812;2022-09-13T08:45:24;100099.22;;;20.90;75.70
21904;BME280;11116;51.554;7.812;2022-09-13T08:47:55;100085.59;;;21.11;74.50
21904;BME280;11116;51.554;7.812;2022-09-13T08:50:26;100087.41;;;21.30;73.96
21904;BME280;11116;51.554;7.812;2022-09-13T08:52:59;100088.06;;;21.19;73.74
21904;BME280;11116;51.554;7.812;2022-09-13T08:55:45;100097.59;;;21.15;74.29
21904;BME280;11116;51.554;7.812;2022-09-13T08:58:37;100092.81;;;21.24;74.11
21904;BME280;11116;51.554;7.812;2022-09-13T09:01:18;100094.06;;;21.15;74.53
21904;BME280;11116;51.554;7.812;2022-09-13T09:03:51;100088.47;;;21.16;74.49
21904;BME280;11116;51.554;7.812;2022-09-13T09:06:21;100085.38;;;21.26;74.62
21904;BME280;11116;51.554;7.812;2022-09-13T09:08:51;100088.09;;;21.13;75.18
21904;BME280;11116;51.554;7.812;2022-09-13T09:11:31;100082.69;;;21.06;75.59
21904;BME280;11116;51.554;7.812;2022-09-13T09:14:06;100074.19;;;21.35;75.25
21904;BME280;11116;51.554;7.812;2022-09-13T09:16:41;100075.69;;;21.76;73.97
21904;BME280;11116;51.554;7.812;2022-09-13T09:19:17;100072.75;;;21.84;72.97
21904;BME280;11116;51.554;7.812;2022-09-13T09:21:46;100075.66;;;22.20;71.17
21904;BME280;11116;51.554;7.812;2022-09-13T09:24:18;100069.41;;;22.58;70.67
21904;BME280;11116;51.554;7.812;2022-09-13T09:26:47;100075.44;;;22.53;70.11
21904;BME280;11116;51.554;7.812;2022-09-13T09:29:17;100067.47;;;22.71;70.31
21904;BME280;11116;51.554;7.812;2022-09-13T09:31:53;100067.78;;;22.81;69.78
21904;BME280;11116;51.554;7.812;2022-09-13T09:34:30;100068.66;;;23.18;69.46
21904;BME280;11116;51.554;7.812;2022-09-13T09:37:14;100059.97;;;22.73;68.55
21904;BME280;11116;51.554;7.812;2022-09-13T09:39:42;100058.31;;;22.97;68.72
21904;BME280;11116;51.554;7.812;2022-09-13T09:42:13;100052.72;;;23.17;68.30
21904;BME280;11116;51.554;7.812;2022-09-13T09:44:43;100050.53;;;23.25;67.57
21904;BME280;11116;51.554;7.812;2022-09-13T09:47:15;100050.84;;;23.35;67.23
21904;BME280;11116;51.554;7.812;2022-09-13T09:49:45;100050.47;;;23.14;67.67
21904;BME280;11116;51.554;7.812;2022-09-13T09:52:34;100049.38;;;23.39;67.70
21904;BME280;11116;51.554;7.812;2022-09-13T09:55:13;100050.34;;;23.27;67.82
21904;BME280;11116;51.554;7.812;2022-09-13T09:57:57;100043.66;;;23.66;67.01
21904;BME280;11116;51.554;7.812;2022-09-13T10:00:26;100038.78;;;24.04;65.47
21904;BME280;11116;51.554;7.812;2022-09-13T10:02:57;100042.16;;;23.70;65.47
21904;BME280;11116;51.554;7.812;2022-09-13T10:05:26;100042.13;;;23.88;66.39
21904;BME280;11116;51.554;7.812;2022-09-13T10:07:57;100042.63;;;23.67;65.53
21904;BME280;11116;51.554;7.812;2022-09-13T10:10:31;100052.25;;;23.44;67.78
21904;BME280;11116;51.554;7.812;2022-09-13T10:13:04;100055.84;;;23.38;67.91
21904;BME280;11116;51.554;7.812;2022-09-13T10:15:33;100055.06;;;23.68;68.06
21904;BME280;11116;51.554;7.812;2022-09-13T10:18:14;100047.34;;;23.71;66.51
21904;BME280;11116;51.554;7.812;2022-09-13T10:20:42;100051.16;;;23.45;66.70
21904;BME280;11116;51.554;7.812;2022-09-13T10:23:25;100043.59;;;23.54;67.43
21904;BME280;11116;51.554;7.812;2022-09-13T10:25:59;100054.59;;;23.71;67.03
21904;BME280;11116;51.554;7.812;2022-09-13T10:28:33;100058.06;;;23.59;68.07
21904;BME280;11116;51.554;7.812;2022-09-13T10:31:03;100052.09;;;23.87;67.68
21904;BME280;11116;51.554;7.812;2022-09-13T10:33:34;100054.41;;;23.84;67.66
21904;BME280;11116;51.554;7.812;2022-09-13T10:36:05;100052.78;;;23.83;68.17
21904;BME280;11116;51.554;7.812;2022-09-13T10:38:36;100060.66;;;23.84;68.74
21904;BME280;11116;51.554;7.812;2022-09-13T10:41:07;100049.28;;;23.82;66.99
21904;BME280;11116;51.554;7.812;2022-09-13T10:43:37;100056.94;;;24.27;67.22
21904;BME280;11116;51.554;7.812;2022-09-13T10:46:05;100050.16;;;23.94;66.65
21904;BME280;11116;51.554;7.812;2022-09-13T10:48:46;100049.69;;;24.39;66.67
21904;BME280;11116;51.554;7.812;2022-09-13T10:51:30;100048.84;;;24.27;66.48
21904;BME280;11116;51.554;7.812;2022-09-13T10:54:16;100050.25;;;24.17;66.35
21904;BME280;11116;51.554;7.812;2022-09-13T10:56:44;100051.41;;;24.22;68.18
21904;BME280;11116;51.554;7.812;2022-09-13T10:59:19;100038.56;;;24.05;65.57
21904;BME280;11116;51.554;7.812;2022-09-13T11:01:56;100042.88;;;24.36;65.61
21904;BME280;11116;51.554;7.812;2022-09-13T11:04:35;100037.34;;;24.20;64.97
21904;BME280;11116;51.554;7.812;2022-09-13T11:07:32;100037.38;;;24.31;66.04
21904;BME280;11116;51.554;7.812;2022-09-13T11:10:06;100034.31;;;24.28;66.03
21904;BME280;11116;51.554;7.812;2022-09-13T11:12:39;100034.59;;;24.49;66.17
21904;BME280;11116;51.554;7.812;2022-09-13T11:15:26;100027.06;;;24.51;66.40
21904;BME280;11116;51.554;7.812;2022-09-13T11:18:12;100028.25;;;24.67;65.92
21904;BME280;11116;51.554;7.812;2022-09-13T11:20:46;100027.16;;;24.45;65.66
21904;BME280;11116;51.554;7.812;2022-09-13T11:26:31;100022.66;;;24.92;65.41
21904;BME280;11116;51.554;7.812;2022-09-13T11:29:06;100005.00;;;25.64;63.64
21904;BME280;11116;51.554;7.812;2022-09-13T11:31:42;100014.06;;;25.06;64.16
21904;BME280;11116;51.554;7.812;2022-09-13T11:34:27;100024.75;;;25.01;65.33
21904;BME280;11116;51.554;7.812;2022-09-13T11:37:07;100022.56;;;25.50;64.34
21904;BME280;11116;51.554;7.812;2022-09-13T11:39:37;100024.50;;;25.14;66.33
21904;BME280;11116;51.554;7.812;2022-09-13T11:42:15;100022.28;;;24.88;67.00
21904;BME280;11116;51.554;7.812;2022-09-13T11:45:13;100026.75;;;25.06;68.52
21904;BME280;11116;51.554;7.812;2022-09-13T11:47:50;100019.34;;;24.78;67.32
21904;BME280;11116;51.554;7.812;2022-09-13T11:50:25;100019.69;;;24.93;66.21
21904;BME280;11116;51.554;7.812;2022-09-13T11:53:19;100011.94;;;25.88;64.59
21904;BME280;11116;51.554;7.812;2022-09-13T11:55:53;100003.13;;;25.64;65.31
21904;BME280;11116;51.554;7.812;2022-09-13T11:58:27;99999.94;;;25.67;64.45
21904;BME280;11116;51.554;7.812;2022-09-13T12:01:00;100002.47;;;25.34;64.27
21904;BME280;11116;51.554;7.812;2022-09-13T12:03:34;100002.19;;;25.07;67.12
21904;BME280;11116;51.554;7.812;2022-09-13T12:06:07;100005.97;;;25.46;66.64
21904;BME280;11116;51.554;7.812;2022-09-13T12:08:40;99989.56;;;26.09;63.88
21904;BME280;11116;51.554;7.812;2022-09-13T12:11:12;99996.38;;;25.67;64.22
21904;BME280;11116;51.554;7.812;2022-09-13T12:13:45;99994.03;;;26.15;63.67
21904;BME280;11116;51.554;7.812;2022-09-13T12:16:17;99990.03;;;25.90;63.23
21904;BME280;11116;51.554;7.812;2022-09-13T12:18:51;99986.16;;;26.47;64.40
21904;BME280;11116;51.554;7.812;2022-09-13T12:21:20;99979.94;;;26.30;64.11
21904;BME280;11116;51.554;7.812;2022-09-13T12:23:55;99975.41;;;26.35;63.34
21904;BME280;11116;51.554;7.812;2022-09-13T12:26:29;99980.41;;;26.10;64.05
21904;BME280;11116;51.554;7.812;2022-09-13T12:29:00;99979.44;;;26.16;64.30
21904;BME280;11116;51.554;7.812;2022-09-13T12:31:29;99975.78;;;26.94;62.65
21904;BME280;11116;51.554;7.812;2022-09-13T12:33:58;99975.28;;;26.25;62.64
21904;BME280;11116;51.554;7.812;2022-09-13T12:36:51;99961.72;;;25.80;63.39
21904;BME280;11116;51.554;7.812;2022-09-13T12:39:43;99979.06;;;25.79;64.42
21904;BME280;11116;51.554;7.812;2022-09-13T12:42:39;99971.53;;;25.53;65.73
21904;BME280;11116;51.554;7.812;2022-09-13T12:45:27;99963.56;;;25.92;65.31
21904;BME280;11116;51.554;7.812;2022-09-13T12:50:59;99970.22;;;25.44;65.60
21904;BME280;11116;51.554;7.812;2022-09-13T12:53:48;99972.44;;;25.59;67.66
21904;BME280;11116;51.554;7.812;2022-09-13T12:56:41;99971.06;;;25.73;67.75
21904;BME280;11116;51.554;7.812;2022-09-13T12:59:23;99966.41;;;25.68;66.13
21904;BME280;11116;51.554;7.812;2022-09-13T13:01:54;99965.81;;;25.66;67.05
21904;BME280;11116;51.554;7.812;2022-09-13T13:04:25;99971.59;;;25.58;67.58
21904;BME280;11116;51.554;7.812;2022-09-13T13:06:56;99965.94;;;25.60;66.89
21904;BME280;11116;51.554;7.812;2022-09-13T13:09:30;99962.41;;;25.88;66.93
21904;BME280;11116;51.554;7.812;2022-09-13T13:12:01;99965.38;;;26.03;67.07
21904;BME280;11116;51.554;7.812;2022-09-13T13:14:46;99967.97;;;25.98;65.97
21904;BME280;11116;51.554;7.812;2022-09-13T13:17:38;99966.09;;;26.26;66.81
21904;BME280;11116;51.554;7.812;2022-09-13T13:23:18;99963.19;;;25.71;68.12
21904;BME280;11116;51.554;7.812;2022-09-13T13:26:10;99960.94;;;25.97;66.51
21904;BME280;11116;51.554;7.812;2022-09-13T13:28:49;99953.03;;;26.40;64.48
21904;BME280;11116;51.554;7.812;2022-09-13T13:31:35;99952.63;;;26.15;65.03